createdAt,value
2017-08-06T00:00:42.050Z,15.50
2017-08-06T00:03:10.285Z,15.60
2017-08-06T00:05:37.761Z,15.60
2017-08-06T00:08:05.570Z,15.60
2017-08-06T00:10:33.046Z,15.60
2017-08-06T00:13:00.529Z,15.60
2017-08-06T00:15:28.029Z,15.70
2017-08-06T00:17:56.265Z,15.70
2017-08-06T00:20:23.737Z,15.70
2017-08-06T00:22:51.228Z,15.70
2017-08-06T00:25:18.697Z,15.50
2017-08-06T00:27:46.178Z,15.40
2017-08-06T00:30:13.669Z,15.20
2017-08-06T00:32:41.141Z,15.20
2017-08-06T00:35:09.377Z,15.20
2017-08-06T00:37:36.877Z,15.20
2017-08-06T00:40:04.520Z,15.10
2017-08-06T00:42:31.989Z,15.00
2017-08-06T00:45:00.245Z,14.70
2017-08-06T00:47:27.716Z,14.70
2017-08-06T00:49:55.956Z,14.70
2017-08-06T00:52:23.457Z,14.70
2017-08-06T00:54:51.978Z,14.90
2017-08-06T00:57:19.450Z,14.90
2017-08-06T00:59:46.942Z,15.00
2017-08-06T01:02:14.693Z,15.00
2017-08-06T01:04:42.161Z,14.90
2017-08-06T01:07:09.653Z,14.80
2017-08-06T01:09:37.124Z,14.70
2017-08-06T01:12:04.598Z,14.70
2017-08-06T01:14:32.184Z,14.70
2017-08-06T01:16:59.785Z,14.60
2017-08-06T01:19:27.341Z,14.50
2017-08-06T01:21:54.846Z,14.50
2017-08-06T01:24:22.317Z,14.50
2017-08-06T01:26:49.790Z,14.50
2017-08-06T01:29:18.049Z,14.50
2017-08-06T01:31:45.521Z,14.50
2017-08-06T01:34:13.757Z,14.60
2017-08-06T01:36:41.252Z,14.60
2017-08-06T01:39:09.489Z,14.40
2017-08-06T01:41:36.957Z,14.40
2017-08-06T01:44:04.456Z,14.30
2017-08-06T01:46:32.694Z,14.20
2017-08-06T01:49:00.165Z,14.20
2017-08-06T01:51:27.881Z,14.20
2017-08-06T01:53:55.393Z,14.30
2017-08-06T01:56:23.634Z,14.40
2017-08-06T01:58:51.434Z,14.30
2017-08-06T02:01:19.674Z,14.60
2017-08-06T02:03:47.145Z,14.50
2017-08-06T02:06:14.642Z,14.60
2017-08-06T02:08:42.434Z,14.60
2017-08-06T02:11:09.905Z,14.60
2017-08-06T02:13:37.398Z,14.60
2017-08-06T02:16:05.645Z,14.50
2017-08-06T02:18:33.122Z,14.50
2017-08-06T02:21:00.613Z,14.50
2017-08-06T02:23:28.086Z,14.30
2017-08-06T02:25:55.553Z,14.10
2017-08-06T02:28:23.049Z,14.10
2017-08-06T02:30:50.517Z,14.20
2017-08-06T02:33:18.758Z,14.20
2017-08-06T02:35:46.259Z,14.20
2017-08-06T02:38:14.498Z,14.10
2017-08-06T02:40:41.965Z,14.10
2017-08-06T02:43:09.461Z,14.10
2017-08-06T02:45:36.934Z,14.00
2017-08-06T02:48:04.405Z,14.00
2017-08-06T02:50:31.980Z,13.90
2017-08-06T02:52:59.450Z,13.90
2017-08-06T02:55:26.921Z,14.00
2017-08-06T02:57:54.427Z,14.00
2017-08-06T03:00:21.897Z,14.00
2017-08-06T03:02:49.365Z,14.00
2017-08-06T03:05:16.857Z,14.00
2017-08-06T03:07:45.093Z,13.90
2017-08-06T03:10:12.565Z,13.90
2017-08-06T03:12:40.060Z,13.90
2017-08-06T03:15:07.533Z,13.80
2017-08-06T03:17:35.005Z,13.70
2017-08-06T03:20:02.500Z,13.60
2017-08-06T03:22:30.010Z,13.60
2017-08-06T03:24:57.480Z,13.70
2017-08-06T03:27:24.969Z,13.70
2017-08-06T03:29:52.441Z,13.70
2017-08-06T03:32:20.681Z,13.80
2017-08-06T03:34:48.485Z,13.80
2017-08-06T03:37:16.728Z,13.70
2017-08-06T03:39:44.200Z,13.70
2017-08-06T03:42:11.701Z,13.60
2017-08-06T03:44:39.169Z,13.60
2017-08-06T03:47:06.641Z,13.50
2017-08-06T03:49:34.138Z,13.50
2017-08-06T03:52:01.617Z,13.50
2017-08-06T03:54:29.857Z,13.50
2017-08-06T03:56:57.365Z,13.50
2017-08-06T03:59:24.838Z,13.40
2017-08-06T04:01:52.605Z,13.30
2017-08-06T04:04:20.101Z,13.30
2017-08-06T04:06:47.573Z,13.30
2017-08-06T04:09:15.810Z,13.40
2017-08-06T04:11:43.313Z,13.40
2017-08-06T04:14:11.554Z,13.40
2017-08-06T04:16:39.021Z,13.40
2017-08-06T04:19:06.513Z,13.50
2017-08-06T04:21:34.015Z,13.60
2017-08-06T04:24:01.486Z,13.60
2017-08-06T04:26:29.016Z,13.70
2017-08-06T04:28:56.485Z,13.90
2017-08-06T04:31:23.956Z,13.90
2017-08-06T04:33:51.857Z,14.00
2017-08-06T04:36:20.094Z,14.20
2017-08-06T04:38:47.566Z,14.20
2017-08-06T04:41:15.062Z,14.20
2017-08-06T04:43:42.537Z,14.10
2017-08-06T04:46:10.013Z,14.00
2017-08-06T04:48:37.761Z,14.00
2017-08-06T04:51:05.233Z,13.90
2017-08-06T04:53:32.705Z,13.90
2017-08-06T04:56:00.198Z,13.80
2017-08-06T04:58:27.670Z,13.60
2017-08-06T05:00:55.141Z,13.60
2017-08-06T05:03:22.946Z,13.60
2017-08-06T05:05:50.418Z,13.80
2017-08-06T05:08:17.889Z,13.80
2017-08-06T05:10:46.157Z,14.00
2017-08-06T05:13:13.645Z,14.00
2017-08-06T05:15:41.117Z,14.10
2017-08-06T05:18:08.610Z,14.20
2017-08-06T05:20:36.081Z,14.30
2017-08-06T05:23:03.558Z,14.40
2017-08-06T05:25:31.813Z,14.40
2017-08-06T05:27:59.289Z,14.40
2017-08-06T05:30:27.525Z,14.20
2017-08-06T05:32:55.028Z,14.20
2017-08-06T05:35:22.521Z,14.20
2017-08-06T05:37:50.210Z,14.20
2017-08-06T05:40:17.709Z,14.30
2017-08-06T05:42:45.182Z,14.40
2017-08-06T05:45:12.654Z,14.40
2017-08-06T05:47:40.145Z,14.50
2017-08-06T05:50:07.617Z,14.50
2017-08-06T05:52:35.091Z,14.70
2017-08-06T05:55:02.581Z,15.00
2017-08-06T05:57:30.058Z,15.10
2017-08-06T05:59:57.529Z,15.40
2017-08-06T06:02:25.029Z,15.50
2017-08-06T06:04:52.809Z,15.70
2017-08-06T06:07:20.285Z,15.90
2017-08-06T06:09:47.785Z,16.20
2017-08-06T06:12:16.022Z,17.00
2017-08-06T06:14:43.490Z,17.00
2017-08-06T06:17:11.085Z,17.60
2017-08-06T06:19:39.316Z,18.50
2017-08-06T06:22:06.786Z,18.50
2017-08-06T06:24:34.277Z,18.80
2017-08-06T06:27:02.069Z,19.30
2017-08-06T06:29:29.541Z,19.50
2017-08-06T06:31:57.041Z,19.40
2017-08-06T06:34:24.541Z,19.80
2017-08-06T06:36:52.030Z,20.30
2017-08-06T06:39:19.866Z,20.40
2017-08-06T06:41:47.341Z,20.60
2017-08-06T06:44:14.812Z,20.90
2017-08-06T06:46:42.310Z,21.20
2017-08-06T06:49:09.782Z,21.20
2017-08-06T06:51:37.473Z,21.60
2017-08-06T06:54:04.966Z,22.10
2017-08-06T06:56:33.205Z,22.20
2017-08-06T06:59:00.682Z,22.20
2017-08-06T07:01:28.173Z,21.90
2017-08-06T07:03:55.645Z,22.20
2017-08-06T07:06:23.121Z,22.30
2017-08-06T07:08:50.625Z,22.20
2017-08-06T07:11:18.105Z,22.60
2017-08-06T07:13:45.581Z,22.70
2017-08-06T07:16:13.078Z,22.50
2017-08-06T07:18:40.546Z,22.20
2017-08-06T07:21:08.017Z,22.70
2017-08-06T07:23:36.278Z,23.40
2017-08-06T07:26:03.750Z,23.40
2017-08-06T07:28:31.993Z,22.80
2017-08-06T07:30:59.485Z,22.80
2017-08-06T07:33:27.721Z,23.10
2017-08-06T07:35:55.194Z,23.10
2017-08-06T07:38:23.073Z,23.30
2017-08-06T07:40:50.545Z,23.20
2017-08-06T07:43:18.018Z,23.00
2017-08-06T07:45:45.805Z,23.30
2017-08-06T07:48:13.277Z,23.60
2017-08-06T07:50:40.748Z,23.80
2017-08-06T07:53:08.241Z,23.90
2017-08-06T07:55:36.481Z,24.70
2017-08-06T07:58:03.956Z,24.70
2017-08-06T08:00:32.218Z,25.00
2017-08-06T08:02:59.685Z,24.90
2017-08-06T08:05:27.156Z,25.30
2017-08-06T08:07:55.464Z,25.90
2017-08-06T08:10:22.937Z,25.90
2017-08-06T08:12:50.404Z,26.00
2017-08-06T08:15:17.899Z,26.50
2017-08-06T08:17:46.526Z,26.80
2017-08-06T08:20:13.997Z,26.70
2017-08-06T08:22:41.493Z,27.00
2017-08-06T08:25:09.161Z,26.60
2017-08-06T08:27:37.426Z,26.90
2017-08-06T08:30:04.921Z,26.80
2017-08-06T08:32:32.396Z,27.30
2017-08-06T08:34:59.877Z,27.60
2017-08-06T08:37:27.373Z,28.10
2017-08-06T08:39:55.612Z,28.20
2017-08-06T08:42:23.081Z,28.20
2017-08-06T08:44:50.621Z,28.60
2017-08-06T08:47:18.093Z,28.20
2017-08-06T08:49:45.569Z,27.90
2017-08-06T08:52:13.842Z,27.50
2017-08-06T08:54:42.082Z,27.70
2017-08-06T08:57:09.559Z,27.70
2017-08-06T08:59:37.054Z,28.10
2017-08-06T09:02:04.527Z,28.60
2017-08-06T09:04:31.998Z,28.60
2017-08-06T09:06:59.504Z,28.50
2017-08-06T09:09:27.741Z,28.40
2017-08-06T09:11:55.213Z,28.30
2017-08-06T09:14:22.945Z,28.20
2017-08-06T09:16:50.705Z,28.40
2017-08-06T09:19:18.186Z,28.30
2017-08-06T09:21:45.684Z,28.50
2017-08-06T09:24:13.921Z,28.80
2017-08-06T09:26:41.394Z,28.80
2017-08-06T09:29:08.881Z,28.90
2017-08-06T09:31:37.113Z,29.10
2017-08-06T09:34:04.586Z,29.00
2017-08-06T09:36:32.089Z,28.40
2017-08-06T09:38:59.560Z,28.50
2017-08-06T09:41:27.038Z,28.70
2017-08-06T09:43:54.530Z,28.90
2017-08-06T09:46:22.768Z,28.80
2017-08-06T09:48:50.238Z,28.80
2017-08-06T09:51:18.125Z,29.10
2017-08-06T09:53:46.370Z,29.00
2017-08-06T09:56:13.841Z,29.00
2017-08-06T09:58:41.333Z,29.30
2017-08-06T10:01:08.822Z,29.70
2017-08-06T10:03:36.294Z,29.80
2017-08-06T10:06:03.794Z,29.50
2017-08-06T10:08:32.033Z,29.10
2017-08-06T10:10:59.505Z,29.10
2017-08-06T10:13:27.001Z,29.10
2017-08-06T10:15:54.474Z,28.90
2017-08-06T10:18:22.164Z,28.40
2017-08-06T10:20:49.652Z,28.40
2017-08-06T10:23:17.899Z,28.90
2017-08-06T10:25:45.637Z,28.90
2017-08-06T10:28:13.131Z,27.70
2017-08-06T10:30:40.601Z,27.10
2017-08-06T10:33:08.074Z,27.10
2017-08-06T10:35:35.577Z,27.40
2017-08-06T10:38:03.045Z,27.60
2017-08-06T10:40:30.512Z,28.10
2017-08-06T10:42:58.001Z,28.80
2017-08-06T10:45:25.477Z,29.50
2017-08-06T10:47:52.973Z,29.20
2017-08-06T10:50:20.465Z,28.40
2017-08-06T10:52:47.941Z,28.20
2017-08-06T10:55:15.415Z,28.30
2017-08-06T10:57:42.909Z,28.10
2017-08-06T11:00:10.388Z,28.30
2017-08-06T11:02:38.917Z,27.80
2017-08-06T11:05:06.405Z,27.80
2017-08-06T11:07:33.909Z,27.90
2017-08-06T11:10:01.414Z,26.90
2017-08-06T11:12:28.946Z,26.60
2017-08-06T11:14:56.454Z,26.50
2017-08-06T11:17:23.960Z,26.60
2017-08-06T11:19:51.453Z,26.80
2017-08-06T11:22:18.921Z,26.80
2017-08-06T11:24:46.490Z,26.90
2017-08-06T11:27:14.758Z,26.80
2017-08-06T11:29:42.232Z,26.80
2017-08-06T11:32:10.752Z,26.60
2017-08-06T11:34:38.245Z,26.50
2017-08-06T11:37:05.713Z,26.50
2017-08-06T11:39:33.182Z,26.40
2017-08-06T11:42:01.445Z,25.90
2017-08-06T11:44:28.921Z,25.90
2017-08-06T11:46:57.165Z,26.10
2017-08-06T11:49:24.661Z,26.10
2017-08-06T11:51:52.133Z,25.60
2017-08-06T11:54:19.606Z,25.60
2017-08-06T11:56:47.097Z,25.60
2017-08-06T11:59:14.566Z,25.60
2017-08-06T12:01:42.037Z,26.00
2017-08-06T12:04:09.545Z,26.40
2017-08-06T12:06:37.016Z,26.80
2017-08-06T12:09:04.485Z,26.90
2017-08-06T12:11:31.981Z,26.70
2017-08-06T12:13:59.449Z,26.70
2017-08-06T12:16:26.917Z,26.70
2017-08-06T12:18:54.409Z,27.40
2017-08-06T12:21:21.882Z,28.10
2017-08-06T12:23:50.122Z,28.60
2017-08-06T12:26:17.868Z,28.60
2017-08-06T12:28:45.340Z,28.70
2017-08-06T12:31:12.817Z,29.40
2017-08-06T12:33:40.322Z,30.30
2017-08-06T12:36:07.804Z,30.40
2017-08-06T12:38:35.272Z,30.90
2017-08-06T12:41:02.766Z,31.40
2017-08-06T12:43:31.001Z,30.90
2017-08-06T12:45:58.473Z,30.90
2017-08-06T12:48:26.024Z,31.10
2017-08-06T12:50:53.518Z,30.60
2017-08-06T12:53:21.752Z,30.80
2017-08-06T12:55:49.268Z,30.70
2017-08-06T12:58:16.742Z,30.00
2017-08-06T13:00:44.213Z,30.40
2017-08-06T13:03:11.705Z,29.60
2017-08-06T13:05:39.177Z,29.70
2017-08-06T13:08:07.361Z,29.10
2017-08-06T13:10:34.893Z,29.50
2017-08-06T13:13:02.368Z,29.00
2017-08-06T13:15:29.838Z,28.90
2017-08-06T13:17:57.334Z,27.90
2017-08-06T13:20:25.649Z,27.40
2017-08-06T13:22:53.118Z,27.50
2017-08-06T13:25:20.981Z,27.50
2017-08-06T13:27:49.221Z,26.80
2017-08-06T13:30:16.697Z,26.70
2017-08-06T13:32:44.189Z,26.50
2017-08-06T13:35:11.657Z,26.20
2017-08-06T13:37:39.126Z,26.30
2017-08-06T13:40:06.629Z,26.00
2017-08-06T13:42:34.101Z,25.20
2017-08-06T13:45:01.575Z,24.80
2017-08-06T13:47:29.076Z,24.70
2017-08-06T13:49:56.544Z,24.90
2017-08-06T13:52:24.229Z,24.90
2017-08-06T13:54:52.538Z,25.10
2017-08-06T13:57:20.017Z,25.10
2017-08-06T13:59:47.498Z,25.10
2017-08-06T14:02:15.005Z,24.80
2017-08-06T14:04:42.478Z,24.70
2017-08-06T14:07:09.952Z,24.40
2017-08-06T14:09:37.464Z,24.40
2017-08-06T14:12:05.701Z,24.40
2017-08-06T14:14:33.173Z,24.40
2017-08-06T14:17:00.665Z,24.40
2017-08-06T14:19:28.178Z,24.20
2017-08-06T14:21:55.669Z,23.70
2017-08-06T14:24:23.174Z,23.60
2017-08-06T14:26:50.645Z,23.40
2017-08-06T14:29:18.117Z,23.30
2017-08-06T14:31:45.778Z,23.40
2017-08-06T14:34:13.245Z,23.70
2017-08-06T14:36:41.486Z,24.10
2017-08-06T14:39:09.074Z,24.10
2017-08-06T14:41:36.549Z,24.10
2017-08-06T14:44:04.786Z,23.80
2017-08-06T14:46:32.383Z,23.80
2017-08-06T14:48:59.890Z,23.30
2017-08-06T14:51:27.366Z,23.10
2017-08-06T14:53:54.869Z,23.10
2017-08-06T14:56:22.354Z,23.20
2017-08-06T14:58:49.833Z,23.20
2017-08-06T15:01:17.325Z,23.20
2017-08-06T15:03:45.561Z,23.30
2017-08-06T15:06:13.035Z,23.20
2017-08-06T15:08:40.619Z,23.20
2017-08-06T15:11:08.140Z,23.10
2017-08-06T15:13:35.681Z,23.20
2017-08-06T15:16:03.206Z,23.20
2017-08-06T15:18:30.722Z,23.30
2017-08-06T15:20:58.225Z,23.40
2017-08-06T15:23:25.748Z,23.50
2017-08-06T15:25:53.225Z,23.40
2017-08-06T15:28:21.521Z,23.10
2017-08-06T15:30:49.388Z,23.10
2017-08-06T15:33:16.872Z,23.00
2017-08-06T15:35:45.182Z,22.90
2017-08-06T15:38:12.977Z,22.80
2017-08-06T15:40:40.473Z,22.80
2017-08-06T15:43:07.941Z,23.00
2017-08-06T15:45:35.433Z,23.00
2017-08-06T15:48:03.685Z,23.40
2017-08-06T15:50:31.509Z,23.40
2017-08-06T15:52:59.002Z,23.50
2017-08-06T15:55:26.486Z,23.50
2017-08-06T15:57:54.725Z,23.20
2017-08-06T16:00:22.220Z,23.20
2017-08-06T16:02:50.556Z,23.10
2017-08-06T16:05:18.036Z,23.10
2017-08-06T16:07:45.562Z,23.10
2017-08-06T16:10:13.113Z,23.10
2017-08-06T16:12:40.617Z,23.10
2017-08-06T16:15:08.882Z,23.10
2017-08-06T16:17:36.509Z,23.10
2017-08-06T16:20:04.337Z,23.20
2017-08-06T16:22:32.957Z,23.20
2017-08-06T16:25:00.498Z,23.20
2017-08-06T16:27:28.013Z,23.10
2017-08-06T16:29:55.557Z,23.00
2017-08-06T16:32:23.056Z,22.90
2017-08-06T16:34:50.567Z,22.90
2017-08-06T16:37:18.090Z,22.90
2017-08-06T16:39:45.714Z,22.90
2017-08-06T16:42:13.290Z,22.80
2017-08-06T16:44:41.625Z,22.90
2017-08-06T16:47:09.847Z,22.90
2017-08-06T16:49:37.360Z,22.90
2017-08-06T16:52:04.905Z,23.00
2017-08-06T16:54:32.593Z,22.90
2017-08-06T16:57:00.910Z,22.90
2017-08-06T16:59:28.506Z,22.90
2017-08-06T17:01:56.063Z,22.90
2017-08-06T17:04:23.598Z,22.80
2017-08-06T17:06:51.114Z,22.80
2017-08-06T17:09:19.638Z,22.60
2017-08-06T17:11:47.147Z,22.60
2017-08-06T17:14:14.671Z,22.60
2017-08-06T17:16:42.295Z,22.60
2017-08-06T17:19:10.196Z,22.50
2017-08-06T17:21:37.725Z,22.50
2017-08-06T17:24:05.207Z,22.40
2017-08-06T17:26:32.694Z,22.30
2017-08-06T17:29:00.202Z,22.20
2017-08-06T17:31:27.686Z,22.20
2017-08-06T17:33:55.164Z,22.10
2017-08-06T17:36:22.658Z,21.90
2017-08-06T17:38:50.918Z,21.80
2017-08-06T17:41:18.414Z,21.80
2017-08-06T17:43:45.905Z,21.60
2017-08-06T17:46:13.377Z,21.60
2017-08-06T17:48:41.101Z,21.50
2017-08-06T17:51:08.590Z,21.40
2017-08-06T17:53:36.073Z,21.30
2017-08-06T17:56:04.321Z,21.30
2017-08-06T17:58:31.821Z,21.30
2017-08-06T18:00:59.302Z,21.30
2017-08-06T18:03:26.782Z,21.30
2017-08-06T18:05:54.277Z,21.30
2017-08-06T18:08:22.518Z,21.30
2017-08-06T18:10:50.000Z,21.30
2017-08-06T18:13:17.489Z,21.30
2017-08-06T18:15:44.958Z,21.30
2017-08-06T18:18:12.463Z,21.30
2017-08-06T18:20:39.961Z,21.20
2017-08-06T18:23:07.430Z,21.10
2017-08-06T18:25:34.904Z,21.10
2017-08-06T18:28:02.401Z,21.00
2017-08-06T18:30:30.186Z,20.90
2017-08-06T18:32:58.425Z,20.70
2017-08-06T18:35:25.916Z,20.60
2017-08-06T18:37:53.507Z,20.50
2017-08-06T18:40:20.989Z,20.40
2017-08-06T18:42:48.487Z,20.30
2017-08-06T18:45:16.725Z,19.90
2017-08-06T18:47:44.202Z,19.90
2017-08-06T18:50:11.715Z,19.80
2017-08-06T18:52:39.238Z,19.60
2017-08-06T18:55:07.777Z,19.60
2017-08-06T18:57:35.340Z,19.40
2017-08-06T19:00:02.975Z,19.40
2017-08-06T19:02:30.585Z,19.40
2017-08-06T19:04:58.916Z,19.30
2017-08-06T19:07:26.444Z,19.30
2017-08-06T19:09:53.987Z,19.20
2017-08-06T19:12:21.574Z,19.00
2017-08-06T19:14:49.147Z,18.80
2017-08-06T19:17:16.910Z,18.60
2017-08-06T19:19:45.437Z,18.40
2017-08-06T19:22:14.870Z,18.30
2017-08-06T19:24:42.504Z,18.20
2017-08-06T19:27:11.617Z,18.00
2017-08-06T19:29:39.292Z,18.00
2017-08-06T19:32:07.753Z,17.90
2017-08-06T19:34:35.323Z,17.90
2017-08-06T19:37:03.181Z,17.80
2017-08-06T19:39:31.717Z,17.60
2017-08-06T19:41:59.456Z,17.60
2017-08-06T19:44:27.074Z,17.60
2017-08-06T19:46:54.586Z,17.60
2017-08-06T19:49:22.621Z,17.60
2017-08-06T19:51:50.889Z,17.50
2017-08-06T19:54:19.745Z,17.50
2017-08-06T19:56:47.373Z,17.20
2017-08-06T19:59:14.865Z,17.20
2017-08-06T20:01:42.337Z,17.20
2017-08-06T20:04:09.883Z,17.20
2017-08-06T20:06:38.303Z,17.10
2017-08-06T20:09:05.808Z,17.00
2017-08-06T20:11:34.172Z,16.90
2017-08-06T20:14:01.909Z,16.90
2017-08-06T20:16:29.458Z,16.80
2017-08-06T20:18:56.961Z,16.70
2017-08-06T20:21:24.431Z,16.60
2017-08-06T20:23:51.901Z,16.60
2017-08-06T20:26:19.397Z,16.50
2017-08-06T20:28:46.869Z,16.50
2017-08-06T20:31:14.349Z,16.40
2017-08-06T20:33:41.851Z,16.40
2017-08-06T20:36:10.085Z,16.30
2017-08-06T20:38:37.557Z,16.30
2017-08-06T20:41:05.053Z,16.30
2017-08-06T20:43:32.530Z,16.10
2017-08-06T20:46:00.005Z,15.80
2017-08-06T20:48:27.494Z,15.70
2017-08-06T20:50:54.970Z,15.70
2017-08-06T20:53:23.244Z,15.50
2017-08-06T20:55:51.505Z,15.60
2017-08-06T20:58:19.014Z,15.60
2017-08-06T21:00:46.486Z,15.60
2017-08-06T21:03:13.982Z,15.50
2017-08-06T21:05:42.221Z,14.80
2017-08-06T21:08:09.701Z,14.80
2017-08-06T21:10:37.206Z,14.70
2017-08-06T21:13:04.682Z,14.70
2017-08-06T21:15:32.153Z,14.70
2017-08-06T21:17:59.649Z,14.70
2017-08-06T21:20:27.891Z,14.90
2017-08-06T21:22:55.366Z,14.90
2017-08-06T21:25:22.860Z,14.90
2017-08-06T21:27:50.434Z,14.90
2017-08-06T21:30:17.909Z,15.00
2017-08-06T21:32:45.401Z,14.90
2017-08-06T21:35:12.869Z,14.90
2017-08-06T21:37:41.113Z,14.80
2017-08-06T21:40:08.613Z,14.80
2017-08-06T21:42:36.086Z,14.80
2017-08-06T21:45:03.560Z,14.70
2017-08-06T21:47:31.062Z,14.60
2017-08-06T21:49:58.545Z,14.60
2017-08-06T21:52:26.028Z,14.50
2017-08-06T21:54:53.561Z,14.50
2017-08-06T21:57:21.071Z,14.40
2017-08-06T21:59:48.545Z,14.30
2017-08-06T22:02:20.011Z,14.30
2017-08-06T22:04:48.282Z,14.10
2017-08-06T22:07:16.599Z,14.00
2017-08-06T22:09:44.130Z,14.00
2017-08-06T22:12:12.406Z,14.00
2017-08-06T22:14:39.886Z,14.00
2017-08-06T22:17:07.382Z,14.00
2017-08-06T22:19:34.856Z,14.00
2017-08-06T22:22:02.325Z,14.00
2017-08-06T22:24:30.599Z,13.90
2017-08-06T22:26:58.879Z,13.80
2017-08-06T22:29:27.153Z,13.70
2017-08-06T22:31:55.447Z,13.70
2017-08-06T22:34:22.950Z,13.70
2017-08-06T22:36:50.460Z,13.70
2017-08-06T22:39:17.973Z,13.80
2017-08-06T22:41:45.445Z,13.90
2017-08-06T22:44:12.920Z,13.80
2017-08-06T22:46:41.178Z,13.70
2017-08-06T22:49:09.421Z,13.50
2017-08-06T22:51:36.897Z,13.50
2017-08-06T22:54:04.396Z,13.50
2017-08-06T22:56:31.869Z,13.40
2017-08-06T22:58:59.337Z,13.30
2017-08-06T23:01:26.834Z,13.30
2017-08-06T23:03:54.306Z,13.30
2017-08-06T23:06:22.538Z,13.30
2017-08-06T23:08:50.033Z,13.30
2017-08-06T23:11:17.506Z,13.30
2017-08-06T23:13:45.745Z,13.30
2017-08-06T23:16:13.237Z,13.30
2017-08-06T23:18:41.472Z,13.40
2017-08-06T23:21:08.945Z,13.30
2017-08-06T23:23:36.451Z,13.40
2017-08-06T23:26:03.921Z,13.20
2017-08-06T23:28:31.393Z,13.10
2017-08-06T23:30:58.891Z,12.80
2017-08-06T23:33:27.130Z,12.90
2017-08-06T23:35:54.601Z,12.80
2017-08-06T23:38:22.093Z,12.90
2017-08-06T23:40:49.574Z,13.00
2017-08-06T23:43:17.058Z,13.00
2017-08-06T23:45:44.553Z,13.00
2017-08-06T23:48:12.793Z,12.90
2017-08-06T23:50:40.435Z,12.90
2017-08-06T23:53:07.933Z,12.90
2017-08-06T23:55:35.406Z,12.90
2017-08-06T23:58:03.646Z,12.60
